sensor_id;sensor_type;location;lat;lon;timestamp;temperature;humidity
21335;DHT22;69435;52.670;13.544;2024-03-02T00:00:23;9.40;66.20
21335;DHT22;69435;52.670;13.544;2024-03-02T00:03:11;9.30;66.20
21335;DHT22;69435;52.670;13.544;2024-03-02T00:05:59;9.30;66.30
21335;DHT22;69435;52.670;13.544;2024-03-02T00:08:45;9.30;66.30
21335;DHT22;69435;52.670;13.544;2024-03-02T00:11:35;9.30;66.50
21335;DHT22;69435;52.670;13.544;2024-03-02T00:14:22;9.30;66.50
21335;DHT22;69435;52.670;13.544;2024-03-02T00:17:21;9.30;66.40
21335;DHT22;69435;52.670;13.544;2024-03-02T00:20:17;9.30;66.30
21335;DHT22;69435;52.670;13.544;2024-03-02T00:23:08;9.30;66.40
21335;DHT22;69435;52.670;13.544;2024-03-02T00:25:59;9.30;66.40
21335;DHT22;69435;52.670;13.544;2024-03-02T00:28:48;9.30;66.50
21335;DHT22;69435;52.670;13.544;2024-03-02T00:31:36;9.20;66.40
21335;DHT22;69435;52.670;13.544;2024-03-02T00:34:22;9.30;66.50
21335;DHT22;69435;52.670;13.544;2024-03-02T00:37:08;9.20;66.40
21335;DHT22;69435;52.670;13.544;2024-03-02T00:39:55;9.20;66.40
21335;DHT22;69435;52.670;13.544;2024-03-02T00:42:42;9.30;66.60
21335;DHT22;69435;52.670;13.544;2024-03-02T00:45:28;9.20;66.50
21335;DHT22;69435;52.670;13.544;2024-03-02T00:48:16;9.20;66.60
21335;DHT22;69435;52.670;13.544;2024-03-02T00:51:03;9.30;66.70
21335;DHT22;69435;52.670;13.544;2024-03-02T00:53:54;9.30;66.70
21335;DHT22;69435;52.670;13.544;2024-03-02T00:56:42;9.30;66.70
21335;DHT22;69435;52.670;13.544;2024-03-02T00:59:28;9.30;66.70
21335;DHT22;69435;52.670;13.544;2024-03-02T01:02:15;9.30;66.70
21335;DHT22;69435;52.670;13.544;2024-03-02T01:05:01;9.30;66.70
21335;DHT22;69435;52.670;13.544;2024-03-02T01:07:47;9.30;66.70
21335;DHT22;69435;52.670;13.544;2024-03-02T01:10:33;9.30;66.70
21335;DHT22;69435;52.670;13.544;2024-03-02T01:13:21;9.40;66.80
21335;DHT22;69435;52.670;13.544;2024-03-02T01:16:09;9.40;66.80
21335;DHT22;69435;52.670;13.544;2024-03-02T01:18:55;9.40;66.70
21335;DHT22;69435;52.670;13.544;2024-03-02T01:21:41;9.40;66.70
21335;DHT22;69435;52.670;13.544;2024-03-02T01:24:27;9.50;66.80
21335;DHT22;69435;52.670;13.544;2024-03-02T01:27:13;9.50;67.50
21335;DHT22;69435;52.670;13.544;2024-03-02T01:29:59;9.50;66.70
21335;DHT22;69435;52.670;13.544;2024-03-02T01:32:45;9.50;66.70
21335;DHT22;69435;52.670;13.544;2024-03-02T01:35:32;9.50;66.70
21335;DHT22;69435;52.670;13.544;2024-03-02T01:38:18;9.60;66.80
21335;DHT22;69435;52.670;13.544;2024-03-02T01:41:04;9.60;66.80
21335;DHT22;69435;52.670;13.544;2024-03-02T01:43:50;9.60;66.70
21335;DHT22;69435;52.670;13.544;2024-03-02T01:46:36;9.60;66.80
21335;DHT22;69435;52.670;13.544;2024-03-02T01:49:22;9.60;66.80
21335;DHT22;69435;52.670;13.544;2024-03-02T01:52:08;9.60;66.90
21335;DHT22;69435;52.670;13.544;2024-03-02T01:54:55;9.60;67.00
21335;DHT22;69435;52.670;13.544;2024-03-02T01:57:41;9.60;67.00
21335;DHT22;69435;52.670;13.544;2024-03-02T02:00:28;9.60;67.10
21335;DHT22;69435;52.670;13.544;2024-03-02T02:03:15;9.60;67.10
21335;DHT22;69435;52.670;13.544;2024-03-02T02:06:02;9.60;67.20
21335;DHT22;69435;52.670;13.544;2024-03-02T02:08:48;9.60;67.20
21335;DHT22;69435;52.670;13.544;2024-03-02T02:11:34;9.60;67.30
21335;DHT22;69435;52.670;13.544;2024-03-02T02:14:20;9.60;67.40
21335;DHT22;69435;52.670;13.544;2024-03-02T02:17:07;9.60;67.40
21335;DHT22;69435;52.670;13.544;2024-03-02T02:19:53;9.60;67.50
21335;DHT22;69435;52.670;13.544;2024-03-02T02:22:39;9.60;67.50
21335;DHT22;69435;52.670;13.544;2024-03-02T02:25:25;9.60;67.50
21335;DHT22;69435;52.670;13.544;2024-03-02T02:28:12;9.60;67.40
21335;DHT22;69435;52.670;13.544;2024-03-02T02:30:58;9.60;67.50
21335;DHT22;69435;52.670;13.544;2024-03-02T02:33:45;9.60;67.50
21335;DHT22;69435;52.670;13.544;2024-03-02T02:36:33;9.60;67.50
21335;DHT22;69435;52.670;13.544;2024-03-02T02:39:21;9.60;67.50
21335;DHT22;69435;52.670;13.544;2024-03-02T02:42:10;9.60;67.50
21335;DHT22;69435;52.670;13.544;2024-03-02T02:44:56;9.70;67.70
21335;DHT22;69435;52.670;13.544;2024-03-02T02:47:43;9.70;67.70
21335;DHT22;69435;52.670;13.544;2024-03-02T02:50:30;9.70;67.70
21335;DHT22;69435;52.670;13.544;2024-03-02T02:53:16;9.70;67.80
21335;DHT22;69435;52.670;13.544;2024-03-02T02:56:02;9.70;67.90
21335;DHT22;69435;52.670;13.544;2024-03-02T02:58:48;9.70;68.00
21335;DHT22;69435;52.670;13.544;2024-03-02T03:01:34;9.80;68.00
21335;DHT22;69435;52.670;13.544;2024-03-02T03:04:20;9.70;68.00
21335;DHT22;69435;52.670;13.544;2024-03-02T03:07:06;9.80;68.20
21335;DHT22;69435;52.670;13.544;2024-03-02T03:09:52;9.80;68.70
21335;DHT22;69435;52.670;13.544;2024-03-02T03:12:39;9.80;69.70
21335;DHT22;69435;52.670;13.544;2024-03-02T03:15:26;9.90;69.50
21335;DHT22;69435;52.670;13.544;2024-03-02T03:18:12;9.90;70.00
21335;DHT22;69435;52.670;13.544;2024-03-02T03:20:58;10.00;70.80
21335;DHT22;69435;52.670;13.544;2024-03-02T03:23:44;10.00;71.10
21335;DHT22;69435;52.670;13.544;2024-03-02T03:26:31;10.00;71.30
21335;DHT22;69435;52.670;13.544;2024-03-02T03:29:17;10.10;71.50
21335;DHT22;69435;52.670;13.544;2024-03-02T03:32:03;10.10;71.70
21335;DHT22;69435;52.670;13.544;2024-03-02T03:34:50;10.20;71.70
21335;DHT22;69435;52.670;13.544;2024-03-02T03:37:36;10.20;72.00
21335;DHT22;69435;52.670;13.544;2024-03-02T03:40:22;10.20;72.10
21335;DHT22;69435;52.670;13.544;2024-03-02T03:43:08;10.30;72.10
21335;DHT22;69435;52.670;13.544;2024-03-02T03:45:54;10.40;72.20
21335;DHT22;69435;52.670;13.544;2024-03-02T03:48:40;10.40;72.30
21335;DHT22;69435;52.670;13.544;2024-03-02T03:51:27;10.40;72.30
21335;DHT22;69435;52.670;13.544;2024-03-02T03:54:13;10.50;72.30
21335;DHT22;69435;52.670;13.544;2024-03-02T03:56:59;10.50;72.20
21335;DHT22;69435;52.670;13.544;2024-03-02T03:59:45;10.50;72.00
21335;DHT22;69435;52.670;13.544;2024-03-02T04:02:32;10.60;72.00
21335;DHT22;69435;52.670;13.544;2024-03-02T04:05:18;10.60;72.00
21335;DHT22;69435;52.670;13.544;2024-03-02T04:08:04;10.60;71.90
21335;DHT22;69435;52.670;13.544;2024-03-02T04:10:50;10.60;71.80
21335;DHT22;69435;52.670;13.544;2024-03-02T04:13:36;10.60;71.70
21335;DHT22;69435;52.670;13.544;2024-03-02T04:16:22;10.70;71.80
21335;DHT22;69435;52.670;13.544;2024-03-02T04:19:09;10.70;71.80
21335;DHT22;69435;52.670;13.544;2024-03-02T04:21:55;10.70;71.90
21335;DHT22;69435;52.670;13.544;2024-03-02T04:24:41;10.80;72.00
21335;DHT22;69435;52.670;13.544;2024-03-02T04:27:27;10.70;72.00
21335;DHT22;69435;52.670;13.544;2024-03-02T04:30:13;10.70;72.00
21335;DHT22;69435;52.670;13.544;2024-03-02T04:32:59;10.70;72.10
21335;DHT22;69435;52.670;13.544;2024-03-02T04:35:45;10.80;72.10
21335;DHT22;69435;52.670;13.544;2024-03-02T04:38:32;10.80;72.30
21335;DHT22;69435;52.670;13.544;2024-03-02T04:41:18;10.70;72.30
21335;DHT22;69435;52.670;13.544;2024-03-02T04:44:04;10.80;72.50
21335;DHT22;69435;52.670;13.544;2024-03-02T04:46:50;10.80;72.60
21335;DHT22;69435;52.670;13.544;2024-03-02T04:49:36;10.80;72.60
21335;DHT22;69435;52.670;13.544;2024-03-02T04:52:22;10.80;72.70
21335;DHT22;69435;52.670;13.544;2024-03-02T04:55:08;10.80;72.70
21335;DHT22;69435;52.670;13.544;2024-03-02T04:58:30;10.90;72.80
21335;DHT22;69435;52.670;13.544;2024-03-02T05:01:16;10.90;72.60
21335;DHT22;69435;52.670;13.544;2024-03-02T05:04:03;10.80;72.40
21335;DHT22;69435;52.670;13.544;2024-03-02T05:06:49;10.90;72.50
21335;DHT22;69435;52.670;13.544;2024-03-02T05:09:38;10.90;72.70
21335;DHT22;69435;52.670;13.544;2024-03-02T05:12:25;10.90;72.70
21335;DHT22;69435;52.670;13.544;2024-03-02T05:15:41;10.90;72.80
21335;DHT22;69435;52.670;13.544;2024-03-02T05:18:27;10.90;72.70
21335;DHT22;69435;52.670;13.544;2024-03-02T05:21:13;10.90;72.60
21335;DHT22;69435;52.670;13.544;2024-03-02T05:23:59;10.90;72.30
21335;DHT22;69435;52.670;13.544;2024-03-02T05:26:45;10.90;72.20
21335;DHT22;69435;52.670;13.544;2024-03-02T05:29:31;10.90;72.20
21335;DHT22;69435;52.670;13.544;2024-03-02T05:32:17;10.90;72.10
21335;DHT22;69435;52.670;13.544;2024-03-02T05:35:04;10.90;72.20
21335;DHT22;69435;52.670;13.544;2024-03-02T05:37:50;11.00;72.40
21335;DHT22;69435;52.670;13.544;2024-03-02T05:40:36;10.90;72.60
21335;DHT22;69435;52.670;13.544;2024-03-02T05:43:22;10.90;72.80
21335;DHT22;69435;52.670;13.544;2024-03-02T05:46:08;10.90;73.10
21335;DHT22;69435;52.670;13.544;2024-03-02T05:48:54;10.90;73.30
21335;DHT22;69435;52.670;13.544;2024-03-02T05:51:40;10.90;73.60
21335;DHT22;69435;52.670;13.544;2024-03-02T05:54:27;11.00;73.90
21335;DHT22;69435;52.670;13.544;2024-03-02T05:57:13;11.00;74.20
21335;DHT22;69435;52.670;13.544;2024-03-02T06:00:24;10.90;74.50
21335;DHT22;69435;52.670;13.544;2024-03-02T06:03:10;11.00;74.70
21335;DHT22;69435;52.670;13.544;2024-03-02T06:05:56;11.00;74.80
21335;DHT22;69435;52.670;13.544;2024-03-02T06:08:42;11.00;74.80
21335;DHT22;69435;52.670;13.544;2024-03-02T06:11:28;11.00;74.80
21335;DHT22;69435;52.670;13.544;2024-03-02T06:14:14;11.00;74.90
21335;DHT22;69435;52.670;13.544;2024-03-02T06:17:00;11.00;74.90
21335;DHT22;69435;52.670;13.544;2024-03-02T06:19:46;11.00;74.80
21335;DHT22;69435;52.670;13.544;2024-03-02T06:22:33;11.10;74.90
21335;DHT22;69435;52.670;13.544;2024-03-02T06:25:20;11.10;74.80
21335;DHT22;69435;52.670;13.544;2024-03-02T06:28:06;11.10;74.70
21335;DHT22;69435;52.670;13.544;2024-03-02T06:30:53;11.00;74.70
21335;DHT22;69435;52.670;13.544;2024-03-02T06:33:39;11.10;74.80
21335;DHT22;69435;52.670;13.544;2024-03-02T06:36:27;11.10;74.80
21335;DHT22;69435;52.670;13.544;2024-03-02T06:39:13;11.10;74.80
21335;DHT22;69435;52.670;13.544;2024-03-02T06:41:59;11.10;75.00
21335;DHT22;69435;52.670;13.544;2024-03-02T06:44:46;11.10;75.10
21335;DHT22;69435;52.670;13.544;2024-03-02T06:47:32;11.10;75.00
21335;DHT22;69435;52.670;13.544;2024-03-02T06:50:18;11.10;75.10
21335;DHT22;69435;52.670;13.544;2024-03-02T06:53:04;11.20;75.00
21335;DHT22;69435;52.670;13.544;2024-03-02T06:55:50;11.20;75.00
21335;DHT22;69435;52.670;13.544;2024-03-02T06:58:36;11.20;75.10
21335;DHT22;69435;52.670;13.544;2024-03-02T07:01:22;11.20;75.20
21335;DHT22;69435;52.670;13.544;2024-03-02T07:04:11;11.20;75.30
21335;DHT22;69435;52.670;13.544;2024-03-02T07:06:57;11.20;75.30
21335;DHT22;69435;52.670;13.544;2024-03-02T07:09:43;11.30;75.30
21335;DHT22;69435;52.670;13.544;2024-03-02T07:12:29;11.30;75.40
21335;DHT22;69435;52.670;13.544;2024-03-02T07:15:15;11.40;75.50
21335;DHT22;69435;52.670;13.544;2024-03-02T07:18:15;11.40;75.40
21335;DHT22;69435;52.670;13.544;2024-03-02T07:21:01;11.40;75.40
21335;DHT22;69435;52.670;13.544;2024-03-02T07:23:48;11.50;75.40
21335;DHT22;69435;52.670;13.544;2024-03-02T07:26:35;11.50;75.30
21335;DHT22;69435;52.670;13.544;2024-03-02T07:29:21;11.50;75.20
21335;DHT22;69435;52.670;13.544;2024-03-02T07:32:09;11.50;75.10
21335;DHT22;69435;52.670;13.544;2024-03-02T07:34:55;11.60;75.10
21335;DHT22;69435;52.670;13.544;2024-03-02T07:37:42;11.60;74.80
21335;DHT22;69435;52.670;13.544;2024-03-02T07:40:28;11.70;74.70
21335;DHT22;69435;52.670;13.544;2024-03-02T07:43:14;11.70;74.50
21335;DHT22;69435;52.670;13.544;2024-03-02T07:46:01;11.70;74.40
21335;DHT22;69435;52.670;13.544;2024-03-02T07:48:50;11.80;74.30
21335;DHT22;69435;52.670;13.544;2024-03-02T07:51:37;11.80;74.10
21335;DHT22;69435;52.670;13.544;2024-03-02T07:54:24;11.80;73.90
21335;DHT22;69435;52.670;13.544;2024-03-02T07:57:10;11.70;74.10
21335;DHT22;69435;52.670;13.544;2024-03-02T07:59:56;11.70;74.10
21335;DHT22;69435;52.670;13.544;2024-03-02T08:02:42;11.70;74.30
21335;DHT22;69435;52.670;13.544;2024-03-02T08:05:28;11.70;74.40
21335;DHT22;69435;52.670;13.544;2024-03-02T08:08:14;11.70;74.30
21335;DHT22;69435;52.670;13.544;2024-03-02T08:11:00;11.70;74.40
21335;DHT22;69435;52.670;13.544;2024-03-02T08:13:47;11.60;74.20
21335;DHT22;69435;52.670;13.544;2024-03-02T08:16:33;11.60;74.10
21335;DHT22;69435;52.670;13.544;2024-03-02T08:19:20;11.70;74.20
21335;DHT22;69435;52.670;13.544;2024-03-02T08:22:06;11.70;74.00
21335;DHT22;69435;52.670;13.544;2024-03-02T08:24:53;11.70;73.80
21335;DHT22;69435;52.670;13.544;2024-03-02T08:27:40;11.70;73.60
21335;DHT22;69435;52.670;13.544;2024-03-02T08:30:26;11.70;73.70
21335;DHT22;69435;52.670;13.544;2024-03-02T08:33:12;11.80;73.50
21335;DHT22;69435;52.670;13.544;2024-03-02T08:35:58;11.80;73.40
21335;DHT22;69435;52.670;13.544;2024-03-02T08:38:45;11.80;73.40
21335;DHT22;69435;52.670;13.544;2024-03-02T08:41:31;11.90;73.20
21335;DHT22;69435;52.670;13.544;2024-03-02T08:44:17;12.00;73.10
21335;DHT22;69435;52.670;13.544;2024-03-02T08:47:03;12.10;73.00
21335;DHT22;69435;52.670;13.544;2024-03-02T08:49:49;12.10;72.80
21335;DHT22;69435;52.670;13.544;2024-03-02T08:52:36;12.10;72.40
21335;DHT22;69435;52.670;13.544;2024-03-02T08:55:22;12.20;72.20
21335;DHT22;69435;52.670;13.544;2024-03-02T08:58:08;12.10;71.90
21335;DHT22;69435;52.670;13.544;2024-03-02T09:00:54;12.20;71.80
21335;DHT22;69435;52.670;13.544;2024-03-02T09:03:40;12.10;71.60
21335;DHT22;69435;52.670;13.544;2024-03-02T09:06:30;12.10;71.30
21335;DHT22;69435;52.670;13.544;2024-03-02T09:09:16;12.10;71.50
21335;DHT22;69435;52.670;13.544;2024-03-02T09:12:02;12.00;71.40
21335;DHT22;69435;52.670;13.544;2024-03-02T09:14:48;12.10;71.50
21335;DHT22;69435;52.670;13.544;2024-03-02T09:17:34;12.00;71.40
21335;DHT22;69435;52.670;13.544;2024-03-02T09:20:20;12.10;71.40
21335;DHT22;69435;52.670;13.544;2024-03-02T09:23:06;12.10;71.30
21335;DHT22;69435;52.670;13.544;2024-03-02T09:25:52;12.10;71.50
21335;DHT22;69435;52.670;13.544;2024-03-02T09:28:38;12.20;71.20
21335;DHT22;69435;52.670;13.544;2024-03-02T09:31:28;12.20;70.90
21335;DHT22;69435;52.670;13.544;2024-03-02T09:34:14;12.30;70.90
21335;DHT22;69435;52.670;13.544;2024-03-02T09:37:01;12.40;70.50
21335;DHT22;69435;52.670;13.544;2024-03-02T09:39:47;12.40;70.00
21335;DHT22;69435;52.670;13.544;2024-03-02T09:42:33;12.50;69.40
21335;DHT22;69435;52.670;13.544;2024-03-02T09:45:23;12.50;69.20
21335;DHT22;69435;52.670;13.544;2024-03-02T09:48:10;12.50;69.20
21335;DHT22;69435;52.670;13.544;2024-03-02T09:50:56;12.60;69.00
21335;DHT22;69435;52.670;13.544;2024-03-02T09:53:43;12.70;69.20
21335;DHT22;69435;52.670;13.544;2024-03-02T09:56:29;12.80;69.20
21335;DHT22;69435;52.670;13.544;2024-03-02T09:59:15;13.00;69.00
21335;DHT22;69435;52.670;13.544;2024-03-02T10:02:03;13.10;68.90
21335;DHT22;69435;52.670;13.544;2024-03-02T10:04:52;13.20;68.40
21335;DHT22;69435;52.670;13.544;2024-03-02T10:07:38;13.40;67.80
21335;DHT22;69435;52.670;13.544;2024-03-02T10:10:36;13.40;67.80
21335;DHT22;69435;52.670;13.544;2024-03-02T10:13:28;13.50;67.30
21335;DHT22;69435;52.670;13.544;2024-03-02T10:16:14;13.70;67.20
21335;DHT22;69435;52.670;13.544;2024-03-02T10:19:20;13.90;67.00
21335;DHT22;69435;52.670;13.544;2024-03-02T10:22:09;14.10;66.20
21335;DHT22;69435;52.670;13.544;2024-03-02T10:24:55;14.20;66.10
21335;DHT22;69435;52.670;13.544;2024-03-02T10:27:41;14.30;65.30
21335;DHT22;69435;52.670;13.544;2024-03-02T10:30:28;14.30;65.20
21335;DHT22;69435;52.670;13.544;2024-03-02T10:33:15;14.50;64.50
21335;DHT22;69435;52.670;13.544;2024-03-02T10:36:03;14.60;63.70
21335;DHT22;69435;52.670;13.544;2024-03-02T10:38:50;14.60;63.50
21335;DHT22;69435;52.670;13.544;2024-03-02T10:41:40;14.70;63.20
21335;DHT22;69435;52.670;13.544;2024-03-02T10:44:27;14.80;61.80
21335;DHT22;69435;52.670;13.544;2024-03-02T10:47:13;14.80;61.70
21335;DHT22;69435;52.670;13.544;2024-03-02T10:50:02;14.80;60.60
21335;DHT22;69435;52.670;13.544;2024-03-02T10:52:53;14.90;60.50
21335;DHT22;69435;52.670;13.544;2024-03-02T10:55:40;14.90;60.30
21335;DHT22;69435;52.670;13.544;2024-03-02T10:58:31;15.00;60.00
21335;DHT22;69435;52.670;13.544;2024-03-02T11:01:18;15.00;59.40
21335;DHT22;69435;52.670;13.544;2024-03-02T11:04:08;15.00;59.20
21335;DHT22;69435;52.670;13.544;2024-03-02T11:07:06;15.10;59.10
21335;DHT22;69435;52.670;13.544;2024-03-02T11:09:59;15.10;59.30
21335;DHT22;69435;52.670;13.544;2024-03-02T11:12:57;15.10;60.10
21335;DHT22;69435;52.670;13.544;2024-03-02T11:15:48;15.20;60.30
21335;DHT22;69435;52.670;13.544;2024-03-02T11:18:39;15.30;60.30
21335;DHT22;69435;52.670;13.544;2024-03-02T11:21:26;15.40;59.40
21335;DHT22;69435;52.670;13.544;2024-03-02T11:27:09;15.50;59.10
21335;DHT22;69435;52.670;13.544;2024-03-02T11:29:58;15.60;58.00
21335;DHT22;69435;52.670;13.544;2024-03-02T11:32:55;15.70;57.90
21335;DHT22;69435;52.670;13.544;2024-03-02T11:35:45;15.90;57.80
21335;DHT22;69435;52.670;13.544;2024-03-02T11:38:33;16.00;57.10
21335;DHT22;69435;52.670;13.544;2024-03-02T11:41:20;16.00;55.60
21335;DHT22;69435;52.670;13.544;2024-03-02T11:44:06;16.00;55.50
21335;DHT22;69435;52.670;13.544;2024-03-02T11:47:01;16.00;53.60
21335;DHT22;69435;52.670;13.544;2024-03-02T11:49:50;16.10;55.40
21335;DHT22;69435;52.670;13.544;2024-03-02T11:52:42;16.00;55.30
21335;DHT22;69435;52.670;13.544;2024-03-02T11:55:30;16.00;55.90
21335;DHT22;69435;52.670;13.544;2024-03-02T11:58:17;16.10;54.60
21335;DHT22;69435;52.670;13.544;2024-03-02T12:01:03;16.10;54.40
21335;DHT22;69435;52.670;13.544;2024-03-02T12:03:49;16.10;54.60
21335;DHT22;69435;52.670;13.544;2024-03-02T12:06:37;16.20;54.40
21335;DHT22;69435;52.670;13.544;2024-03-02T12:09:24;16.30;53.80
21335;DHT22;69435;52.670;13.544;2024-03-02T12:12:11;16.30;53.30
21335;DHT22;69435;52.670;13.544;2024-03-02T12:15:00;16.40;52.30
21335;DHT22;69435;52.670;13.544;2024-03-02T12:17:55;16.30;52.40
21335;DHT22;69435;52.670;13.544;2024-03-02T12:20:42;16.30;52.80
21335;DHT22;69435;52.670;13.544;2024-03-02T12:23:28;16.20;52.60
21335;DHT22;69435;52.670;13.544;2024-03-02T12:26:14;16.20;52.20
21335;DHT22;69435;52.670;13.544;2024-03-02T12:29:01;16.20;52.90
21335;DHT22;69435;52.670;13.544;2024-03-02T12:31:53;16.20;52.10
21335;DHT22;69435;52.670;13.544;2024-03-02T12:34:39;16.30;51.60
21335;DHT22;69435;52.670;13.544;2024-03-02T12:37:25;16.30;51.60
21335;DHT22;69435;52.670;13.544;2024-03-02T12:40:14;16.30;52.10
21335;DHT22;69435;52.670;13.544;2024-03-02T12:43:04;16.30;51.70
21335;DHT22;69435;52.670;13.544;2024-03-02T12:45:51;16.40;51.90
21335;DHT22;69435;52.670;13.544;2024-03-02T12:48:38;16.50;51.40
21335;DHT22;69435;52.670;13.544;2024-03-02T12:51:28;16.60;50.60
21335;DHT22;69435;52.670;13.544;2024-03-02T12:54:14;16.70;50.00
21335;DHT22;69435;52.670;13.544;2024-03-02T12:57:00;16.80;49.20
21335;DHT22;69435;52.670;13.544;2024-03-02T12:59:48;16.90;48.40
21335;DHT22;69435;52.670;13.544;2024-03-02T13:02:34;16.90;48.10
21335;DHT22;69435;52.670;13.544;2024-03-02T13:05:22;16.90;48.50
21335;DHT22;69435;52.670;13.544;2024-03-02T13:08:08;16.90;48.50
21335;DHT22;69435;52.670;13.544;2024-03-02T13:10:54;16.80;49.20
21335;DHT22;69435;52.670;13.544;2024-03-02T13:13:41;16.80;49.60
21335;DHT22;69435;52.670;13.544;2024-03-02T13:16:28;16.80;49.70
21335;DHT22;69435;52.670;13.544;2024-03-02T13:19:14;16.70;49.50
21335;DHT22;69435;52.670;13.544;2024-03-02T13:22:00;16.70;49.90
21335;DHT22;69435;52.670;13.544;2024-03-02T13:24:50;16.70;49.80
21335;DHT22;69435;52.670;13.544;2024-03-02T13:27:37;16.80;49.90
21335;DHT22;69435;52.670;13.544;2024-03-02T13:30:23;16.80;49.10
21335;DHT22;69435;52.670;13.544;2024-03-02T13:33:09;16.90;48.90
21335;DHT22;69435;52.670;13.544;2024-03-02T13:35:55;16.90;47.80
21335;DHT22;69435;52.670;13.544;2024-03-02T13:38:41;16.90;48.20
21335;DHT22;69435;52.670;13.544;2024-03-02T13:41:27;16.90;48.60
21335;DHT22;69435;52.670;13.544;2024-03-02T13:44:13;16.90;48.60
21335;DHT22;69435;52.670;13.544;2024-03-02T13:47:00;16.90;47.80
21335;DHT22;69435;52.670;13.544;2024-03-02T13:49:47;16.90;47.90
21335;DHT22;69435;52.670;13.544;2024-03-02T13:52:34;16.80;48.00
21335;DHT22;69435;52.670;13.544;2024-03-02T13:55:20;16.80;48.00
21335;DHT22;69435;52.670;13.544;2024-03-02T13:58:06;16.70;47.60
21335;DHT22;69435;52.670;13.544;2024-03-02T14:00:52;16.70;47.90
21335;DHT22;69435;52.670;13.544;2024-03-02T14:03:38;16.60;47.90
21335;DHT22;69435;52.670;13.544;2024-03-02T14:06:24;16.50;48.50
21335;DHT22;69435;52.670;13.544;2024-03-02T14:09:12;16.40;49.00
21335;DHT22;69435;52.670;13.544;2024-03-02T14:11:58;16.30;49.10
21335;DHT22;69435;52.670;13.544;2024-03-02T14:14:47;16.30;49.40
21335;DHT22;69435;52.670;13.544;2024-03-02T14:17:36;16.20;49.80
21335;DHT22;69435;52.670;13.544;2024-03-02T14:20:22;16.10;50.70
21335;DHT22;69435;52.670;13.544;2024-03-02T14:23:09;16.00;50.10
21335;DHT22;69435;52.670;13.544;2024-03-02T14:25:56;16.00;50.20
21335;DHT22;69435;52.670;13.544;2024-03-02T14:28:42;15.80;50.60
21335;DHT22;69435;52.670;13.544;2024-03-02T14:31:29;15.80;50.80
21335;DHT22;69435;52.670;13.544;2024-03-02T14:34:16;15.70;51.30
21335;DHT22;69435;52.670;13.544;2024-03-02T14:37:03;15.60;51.40
21335;DHT22;69435;52.670;13.544;2024-03-02T14:39:49;15.60;51.40
21335;DHT22;69435;52.670;13.544;2024-03-02T14:42:36;15.50;51.70
21335;DHT22;69435;52.670;13.544;2024-03-02T14:45:22;15.40;51.60
21335;DHT22;69435;52.670;13.544;2024-03-02T14:48:09;15.30;51.90
21335;DHT22;69435;52.670;13.544;2024-03-02T14:50:55;15.10;51.90
21335;DHT22;69435;52.670;13.544;2024-03-02T14:53:42;15.00;52.30
21335;DHT22;69435;52.670;13.544;2024-03-02T14:56:28;15.00;52.80
21335;DHT22;69435;52.670;13.544;2024-03-02T14:59:14;14.90;53.20
21335;DHT22;69435;52.670;13.544;2024-03-02T15:02:00;14.80;53.40
21335;DHT22;69435;52.670;13.544;2024-03-02T15:04:47;14.80;53.50
21335;DHT22;69435;52.670;13.544;2024-03-02T15:07:34;14.70;53.60
21335;DHT22;69435;52.670;13.544;2024-03-02T15:10:20;14.60;53.70
21335;DHT22;69435;52.670;13.544;2024-03-02T15:13:06;14.60;54.10
21335;DHT22;69435;52.670;13.544;2024-03-02T15:15:52;14.60;54.10
21335;DHT22;69435;52.670;13.544;2024-03-02T15:18:38;14.50;54.40
21335;DHT22;69435;52.670;13.544;2024-03-02T15:21:24;14.30;54.60
21335;DHT22;69435;52.670;13.544;2024-03-02T15:24:10;14.30;54.90
21335;DHT22;69435;52.670;13.544;2024-03-02T15:26:56;14.30;55.10
21335;DHT22;69435;52.670;13.544;2024-03-02T15:29:42;14.20;55.30
21335;DHT22;69435;52.670;13.544;2024-03-02T15:32:29;14.20;55.60
21335;DHT22;69435;52.670;13.544;2024-03-02T15:35:15;14.20;55.50
21335;DHT22;69435;52.670;13.544;2024-03-02T15:38:01;14.10;55.70
21335;DHT22;69435;52.670;13.544;2024-03-02T15:40:47;14.00;55.90
21335;DHT22;69435;52.670;13.544;2024-03-02T15:43:33;14.00;56.20
21335;DHT22;69435;52.670;13.544;2024-03-02T15:46:21;13.90;56.50
21335;DHT22;69435;52.670;13.544;2024-03-02T15:49:07;13.90;56.60
21335;DHT22;69435;52.670;13.544;2024-03-02T15:51:54;13.80;56.80
21335;DHT22;69435;52.670;13.544;2024-03-02T15:54:40;13.70;56.80
21335;DHT22;69435;52.670;13.544;2024-03-02T15:57:26;13.70;57.00
21335;DHT22;69435;52.670;13.544;2024-03-02T16:00:12;13.70;57.10
21335;DHT22;69435;52.670;13.544;2024-03-02T16:02:58;13.60;57.00
21335;DHT22;69435;52.670;13.544;2024-03-02T16:05:44;13.60;57.10
21335;DHT22;69435;52.670;13.544;2024-03-02T16:08:31;13.50;57.40
21335;DHT22;69435;52.670;13.544;2024-03-02T16:11:17;13.50;57.50
21335;DHT22;69435;52.670;13.544;2024-03-02T16:14:03;13.50;57.60
21335;DHT22;69435;52.670;13.544;2024-03-02T16:16:49;13.40;57.50
21335;DHT22;69435;52.670;13.544;2024-03-02T16:19:35;13.40;57.50
21335;DHT22;69435;52.670;13.544;2024-03-02T16:22:24;13.40;57.50
21335;DHT22;69435;52.670;13.544;2024-03-02T16:25:11;13.30;57.60
21335;DHT22;69435;52.670;13.544;2024-03-02T16:27:57;13.30;57.70
21335;DHT22;69435;52.670;13.544;2024-03-02T16:30:44;13.30;57.70
21335;DHT22;69435;52.670;13.544;2024-03-02T16:33:30;13.20;57.80
21335;DHT22;69435;52.670;13.544;2024-03-02T16:36:16;13.10;58.00
21335;DHT22;69435;52.670;13.544;2024-03-02T16:39:02;13.10;58.00
21335;DHT22;69435;52.670;13.544;2024-03-02T16:41:49;13.00;58.10
21335;DHT22;69435;52.670;13.544;2024-03-02T16:44:35;12.90;58.20
21335;DHT22;69435;52.670;13.544;2024-03-02T16:47:22;12.90;58.30
21335;DHT22;69435;52.670;13.544;2024-03-02T16:50:09;12.90;58.40
21335;DHT22;69435;52.670;13.544;2024-03-02T16:52:57;12.90;58.50
21335;DHT22;69435;52.670;13.544;2024-03-02T16:55:44;12.80;58.50
21335;DHT22;69435;52.670;13.544;2024-03-02T16:58:30;12.80;58.50
21335;DHT22;69435;52.670;13.544;2024-03-02T17:01:16;12.80;58.70
21335;DHT22;69435;52.670;13.544;2024-03-02T17:04:02;12.80;58.80
21335;DHT22;69435;52.670;13.544;2024-03-02T17:06:51;12.80;58.90
21335;DHT22;69435;52.670;13.544;2024-03-02T17:09:37;12.80;58.90
21335;DHT22;69435;52.670;13.544;2024-03-02T17:12:23;12.70;58.90
21335;DHT22;69435;52.670;13.544;2024-03-02T17:15:10;12.70;58.90
21335;DHT22;69435;52.670;13.544;2024-03-02T17:17:56;12.70;58.90
21335;DHT22;69435;52.670;13.544;2024-03-02T17:20:42;12.60;58.90
21335;DHT22;69435;52.670;13.544;2024-03-02T17:23:28;12.50;59.00
21335;DHT22;69435;52.670;13.544;2024-03-02T17:26:16;12.50;59.10